Time;durP1;ratioP1;P1;durP2;ratioP2;P2;SDS_P1;SDS_P2;PMS_P1;PMS_P2;Temp;Humidity;BMP_temperature;BMP_pressure;BME280_temperature;BME280_humidity;BME280_pressure;Samples;Min_cycle;Max_cycle;Signal;HPM_P1;HPM_P2
2023/11/10 00:02:16;;;;;;;3.50;0.75;;;;;;;15.59;47.28;99506.78;4998702;28;20041;-57
2023/11/10 00:04:41;;;;;;;3.65;0.65;;;;;;;15.59;48.40;99502.22;5031958;28;20105;-57
2023/11/10 00:07:07;;;;;;;0.40;0.32;;;;;;;15.60;48.73;99498.50;5031410;28;20048;-56
2023/11/10 00:09:35;;;;;;;1.75;0.60;;;;;;;15.59;48.56;99502.22;5015919;28;20516;-57
2023/11/10 00:12:04;;;;;;;2.47;0.93;;;;;;;15.58;48.39;99495.16;5004451;28;20077;-57
2023/11/10 00:14:29;;;;;;;2.05;0.47;;;;;;;15.60;47.08;99487.72;4978588;28;20122;-57
2023/11/10 00:16:55;;;;;;;1.25;0.70;;;;;;;15.61;47.40;99489.34;4986881;28;20069;-57
2023/11/10 00:19:21;;;;;;;2.75;0.55;;;;;;;15.61;48.39;99478.56;4993509;28;20473;-57
2023/11/10 00:21:49;;;;;;;2.03;0.57;;;;;;;15.63;47.79;99476.50;4993189;28;20050;-57
2023/11/10 00:24:15;;;;;;;2.35;0.60;;;;;;;15.66;48.42;99475.31;4989631;28;20073;-57
2023/11/10 00:26:40;;;;;;;1.10;0.50;;;;;;;15.63;48.33;99471.09;5002787;28;20018;-56
2023/11/10 00:29:05;;;;;;;4.95;0.60;;;;;;;15.67;48.16;99477.78;4975940;28;20024;-57
2023/11/10 00:31:31;;;;;;;0.98;0.70;;;;;;;15.68;48.43;99474.06;4975649;28;20026;-57
2023/11/10 00:33:57;;;;;;;3.30;1.23;;;;;;;15.71;47.93;99468.28;4959603;28;20109;-58
2023/11/10 00:36:23;;;;;;;2.30;1.00;;;;;;;15.71;48.47;99470.97;4975636;28;20040;-58
2023/11/10 00:38:48;;;;;;;1.05;0.60;;;;;;;15.73;48.49;99476.19;4993091;28;20029;-57
2023/11/10 00:41:19;;;;;;;3.75;0.70;;;;;;;15.74;48.87;99467.88;4975611;28;20113;-57
2023/11/10 00:43:44;;;;;;;2.25;0.70;;;;;;;15.73;47.56;99466.22;4960235;28;20022;-57
2023/11/10 00:46:09;;;;;;;3.80;0.90;;;;;;;15.77;48.22;99463.97;4975557;28;20038;-57
2023/11/10 00:48:35;;;;;;;3.40;0.73;;;;;;;15.76;48.68;99464.16;4975964;28;20408;-58
2023/11/10 00:51:00;;;;;;;1.77;0.70;;;;;;;15.73;48.21;99459.97;4985814;28;20481;-57
2023/11/10 00:53:26;;;;;;;3.65;0.77;;;;;;;15.76;47.78;99472.25;4994712;28;20040;-57
2023/11/10 00:55:53;;;;;;;3.90;1.30;;;;;;;15.74;47.18;99473.25;5014805;28;20057;-58
2023/11/10 00:58:19;;;;;;;2.72;0.60;;;;;;;15.70;47.28;99461.19;4995905;28;20037;-58
2023/11/10 01:00:45;;;;;;;2.17;0.70;;;;;;;15.70;48.16;99458.50;5013642;28;20041;-57
2023/11/10 01:03:11;;;;;;;5.15;0.70;;;;;;;15.69;48.54;99464.91;5014113;28;20038;-58
2023/11/10 01:05:36;;;;;;;4.25;0.98;;;;;;;15.71;48.13;99465.59;5014096;28;20168;-57
2023/11/10 01:08:01;;;;;;;2.30;0.63;;;;;;;15.70;47.52;99455.81;5013951;28;20073;-57
2023/11/10 01:10:27;;;;;;;3.03;0.47;;;;;;;15.68;48.76;99455.19;4996861;28;20033;-58
2023/11/10 01:12:52;;;;;;;6.13;1.17;;;;;;;15.65;48.01;99447.47;5015558;28;20037;-57
2023/11/10 01:15:18;;;;;;;3.13;0.63;;;;;;;15.71;48.49;99464.75;5015732;28;20070;-57
2023/11/10 01:17:44;;;;;;;1.48;0.70;;;;;;;15.69;48.49;99459.53;5013223;28;20040;-57
2023/11/10 01:20:11;;;;;;;4.65;0.43;;;;;;;15.67;47.52;99453.50;4998061;28;20450;-57
2023/11/10 01:22:37;;;;;;;0.30;0.30;;;;;;;15.69;47.99;99455.97;4998101;28;20049;-57
2023/11/10 01:25:05;;;;;;;1.75;0.40;;;;;;;15.66;49.00;99440.19;5015618;28;20097;-57
2023/11/10 01:27:30;;;;;;;2.38;0.73;;;;;;;15.72;48.35;99452.88;5015467;28;20049;-57
2023/11/10 01:29:55;;;;;;;2.83;0.95;;;;;;;15.74;47.62;99457.06;4983933;28;20038;-56
2023/11/10 01:32:21;;;;;;;3.45;0.65;;;;;;;15.77;47.30;99461.25;5014235;28;20049;-57
2023/11/10 01:34:46;;;;;;;0.88;0.28;;;;;;;15.79;48.68;99455.66;5014105;28;20041;-57
2023/11/10 01:37:11;;;;;;;4.32;0.90;;;;;;;15.73;47.65;99443.78;5014020;28;20033;-57
2023/11/10 01:39:37;;;;;;;3.47;0.98;;;;;;;15.78;47.83;99451.28;5014241;28;20045;-57
2023/11/10 01:42:04;;;;;;;2.95;1.02;;;;;;;15.85;48.14;99454.88;5015243;28;20473;-57
2023/11/10 01:44:30;;;;;;;3.22;0.75;;;;;;;15.87;48.71;99448.25;5013967;28;20030;-58
2023/11/10 01:46:55;;;;;;;7.93;1.17;;;;;;;15.87;48.15;99444.69;5013951;28;20526;-57
2023/11/10 01:49:22;;;;;;;2.10;0.45;;;;;;;15.91;48.84;99454.94;5015067;28;20041;-57
2023/11/10 01:51:52;;;;;;;5.22;0.60;;;;;;;15.93;48.18;99443.91;5015015;28;20400;-57
2023/11/10 01:54:20;;;;;;;9.20;1.73;;;;;;;15.95;48.13;99452.66;4998038;28;20034;-58
2023/11/10 01:56:48;;;;;;;2.50;0.60;;;;;;;15.96;47.47;99443.53;5014929;28;20037;-57
2023/11/10 01:59:15;;;;;;;2.28;0.63;;;;;;;16.00;48.73;99455.59;4998212;28;20122;-57
2023/11/10 02:01:45;;;;;;;3.40;0.63;;;;;;;16.01;48.24;99451.88;5014834;28;20029;-57
2023/11/10 02:04:16;;;;;;;3.63;0.60;;;;;;;16.03;47.92;99444.38;4997113;28;20034;-57
2023/11/10 02:06:44;;;;;;;4.47;0.40;;;;;;;16.04;47.95;99443.38;4997598;28;20057;-57
2023/11/10 02:09:10;;;;;;;4.68;0.80;;;;;;;16.08;47.87;99444.66;5014771;28;20521;-57
2023/11/10 02:11:38;;;;;;;2.95;0.75;;;;;;;16.08;47.27;99442.75;4997246;28;20109;-57
2023/11/10 02:14:04;;;;;;;2.58;0.85;;;;;;;16.09;47.60;99443.59;5014611;28;20034;-57
2023/11/10 02:16:30;;;;;;;1.08;0.50;;;;;;;16.09;47.18;99443.59;4979808;28;20045;-57
2023/11/10 02:18:56;;;;;;;3.20;0.70;;;;;;;16.08;47.19;99441.94;5014487;28;20026;-56
2023/11/10 02:21:21;;;;;;;1.02;0.30;;;;;;;16.08;47.99;99433.84;5014281;28;20034;-56
2023/11/10 02:23:49;;;;;;;3.05;0.80;;;;;;;16.08;47.28;99433.84;5014415;28;20397;-58
2023/11/10 02:26:14;;;;;;;1.80;1.20;;;;;;;16.04;48.16;99429.88;5014358;28;20034;-57
2023/11/10 02:28:41;;;;;;;5.13;0.70;;;;;;;16.09;47.28;99428.22;5014136;28;20033;-57
2023/11/10 02:31:07;;;;;;;5.35;1.30;;;;;;;16.10;47.45;99437.19;5014265;28;20034;-56
2023/11/10 02:33:33;;;;;;;4.68;0.75;;;;;;;16.05;46.89;99432.34;5014064;28;20026;-57
2023/11/10 02:35:59;;;;;;;3.63;0.80;;;;;;;16.04;47.33;99435.25;4996826;28;20069;-57
2023/11/10 02:38:24;;;;;;;2.00;0.80;;;;;;;16.03;46.86;99444.38;4996890;28;20057;-56
2023/11/10 02:40:51;;;;;;;1.50;0.73;;;;;;;16.02;47.76;99437.34;5014500;28;20029;-56
2023/11/10 02:43:16;;;;;;;1.48;0.30;;;;;;;16.01;47.87;99441.06;5014377;28;20026;-56
2023/11/10 02:45:42;;;;;;;6.35;0.55;;;;;;;15.98;46.52;99430.66;4996188;28;20520;-56
2023/11/10 02:48:09;;;;;;;0.63;0.40;;;;;;;15.98;47.19;99436.06;4996828;28;20080;-57
2023/11/10 02:50:35;;;;;;;1.02;0.50;;;;;;;15.99;46.83;99437.72;5015076;28;20120;-56
2023/11/10 02:53:00;;;;;;;3.33;0.60;;;;;;;16.00;46.59;99442.91;4998406;28;20053;-56
2023/11/10 02:55:25;;;;;;;1.20;0.30;;;;;;;15.99;48.00;99443.97;5015701;28;20121;-56
2023/11/10 02:57:51;;;;;;;3.90;0.73;;;;;;;16.01;47.12;99441.91;5017682;28;20102;-57
2023/11/10 03:00:16;;;;;;;6.18;0.93;;;;;;;16.01;48.04;99441.06;5018567;28;20036;-56
2023/11/10 03:02:42;;;;;;;4.93;0.63;;;;;;;16.02;47.07;99437.34;5017594;28;20081;-56
2023/11/10 03:05:07;;;;;;;5.30;0.40;;;;;;;16.03;48.06;99433.59;5014523;28;20046;-56
2023/11/10 03:07:33;;;;;;;2.83;0.50;;;;;;;16.01;46.91;99422.16;4996356;28;20037;-57
2023/11/10 03:09:58;;;;;;;0.75;0.38;;;;;;;16.01;47.63;99435.66;4996291;28;20041;-56
2023/11/10 03:12:24;;;;;;;2.65;0.75;;;;;;;16.00;47.17;99434.81;5002695;28;20038;-57
2023/11/10 03:14:50;;;;;;;4.68;1.05;;;;;;;16.01;47.70;99436.50;4995891;28;20045;-57
2023/11/10 03:17:15;;;;;;;5.10;0.85;;;;;;;15.99;47.24;99437.72;4996000;28;20037;-57
2023/11/10 03:19:41;;;;;;;2.20;0.43;;;;;;;15.97;47.32;99429.00;4994932;28;20386;-57
2023/11/10 03:22:06;;;;;;;2.72;0.38;;;;;;;15.90;47.99;99423.53;5013167;28;20497;-57
2023/11/10 03:24:32;;;;;;;1.42;0.88;;;;;;;15.91;48.05;99436.03;5012797;28;20528;-57
2023/11/10 03:26:57;;;;;;;6.70;0.70;;;;;;;15.94;46.90;99438.31;5013288;28;20382;-56
2023/11/10 03:29:22;;;;;;;3.15;0.65;;;;;;;15.90;47.50;99433.50;4979545;28;20161;-57
2023/11/10 03:31:48;;;;;;;2.67;0.50;;;;;;;15.86;47.81;99448.41;4995930;28;20467;-56
2023/11/10 03:34:15;;;;;;;1.08;0.38;;;;;;;15.85;46.96;99444.91;5013185;28;20044;-57
2023/11/10 03:36:40;;;;;;;0.65;0.60;;;;;;;15.85;47.94;99447.63;5013174;28;20096;-57
2023/11/10 03:39:05;;;;;;;2.28;0.60;;;;;;;15.85;46.96;99441.38;4979331;28;20505;-56
2023/11/10 03:41:31;;;;;;;2.95;0.77;;;;;;;15.83;47.24;99438.03;4995666;28;20041;-56
2023/11/10 03:43:56;;;;;;;1.85;0.95;;;;;;;15.85;46.83;99441.38;5013370;28;20030;-57
2023/11/10 03:46:22;;;;;;;0.88;0.30;;;;;;;15.81;47.62;99437.38;4979435;28;20029;-57
2023/11/10 03:48:47;;;;;;;3.03;0.60;;;;;;;15.83;48.49;99446.94;4995540;28;20085;-57
2023/11/10 03:51:12;;;;;;;3.72;0.40;;;;;;;15.80;47.95;99450.03;4995668;28;20030;-57
2023/11/10 03:53:41;;;;;;;1.88;0.40;;;;;;;15.78;48.51;99449.41;5013090;28;20033;-56
2023/11/10 03:56:07;;;;;;;2.72;0.73;;;;;;;15.79;48.37;99447.56;5012885;28;20038;-56
2023/11/10 03:58:33;;;;;;;1.95;0.40;;;;;;;15.79;47.77;99458.34;5013047;28;20497;-56
2023/11/10 04:00:58;;;;;;;1.95;0.57;;;;;;;15.76;47.89;99447.94;4979156;28;20054;-57
2023/11/10 04:03:24;;;;;;;3.92;0.50;;;;;;;15.76;47.19;99451.47;4995483;28;20037;-57
2023/11/10 04:05:49;;;;;;;2.63;0.77;;;;;;;15.79;47.70;99452.97;5012704;28;20497;-57
2023/11/10 04:08:15;;;;;;;1.77;0.70;;;;;;;15.79;47.72;99450.25;5013223;28;20061;-56
2023/11/10 04:10:40;;;;;;;3.92;0.63;;;;;;;15.77;47.01;99455.88;5012597;28;20397;-57
2023/11/10 04:13:05;;;;;;;4.68;0.57;;;;;;;15.74;47.52;99445.47;5013088;28;20113;-57
2023/11/10 04:15:31;;;;;;;1.35;0.50;;;;;;;15.77;48.09;99449.63;4995974;28;20042;-57
2023/11/10 04:18:00;;;;;;;4.15;0.40;;;;;;;15.76;47.20;99431.75;5013400;28;20117;-57
2023/11/10 04:20:25;;;;;;;2.05;0.50;;;;;;;15.76;47.30;99442.53;4995298;28;20042;-57
2023/11/10 04:22:51;;;;;;;2.47;0.40;;;;;;;15.77;47.13;99444.22;4998052;28;20037;-57
2023/11/10 04:25:17;;;;;;;4.30;0.40;;;;;;;15.71;47.23;99435.88;5002214;28;20058;-57
2023/11/10 04:27:43;;;;;;;4.57;0.68;;;;;;;15.73;48.20;99439.22;5001809;28;20532;-57
2023/11/10 04:30:09;;;;;;;2.17;0.55;;;;;;;15.72;47.88;99442.09;5020053;28;20049;-57
2023/11/10 04:32:36;;;;;;;0.82;0.73;;;;;;;15.70;47.56;99436.91;5016727;28;20590;-57
2023/11/10 04:35:01;;;;;;;2.67;0.77;;;;;;;15.72;47.50;99442.94;4999569;28;20092;-57
2023/11/10 04:37:28;;;;;;;0.55;0.28;;;;;;;15.74;47.58;99445.47;5016482;28;20037;-58
2023/11/10 04:39:53;;;;;;;1.88;0.40;;;;;;;15.76;46.85;99447.94;5016358;28;20164;-57
2023/11/10 04:42:19;;;;;;;1.38;0.40;;;;;;;15.73;47.00;99441.91;4998822;28;20112;-57
2023/11/10 04:44:45;;;;;;;0.47;0.15;;;;;;;15.70;47.10;99442.31;5016259;28;20033;-57
2023/11/10 04:47:11;;;;;;;0.30;0.20;;;;;;;15.72;46.62;99444.78;4982220;28;20030;-57
2023/11/10 04:49:38;;;;;;;1.15;0.50;;;;;;;15.73;47.18;99447.31;4998802;28;20121;-57
2023/11/10 04:52:04;;;;;;;0.65;0.50;;;;;;;15.71;46.90;99446.69;5016204;28;20041;-57
2023/11/10 04:54:29;;;;;;;3.05;0.40;;;;;;;15.73;47.46;99450.00;4998490;28;20042;-57
2023/11/10 04:56:55;;;;;;;1.20;0.52;;;;;;;15.76;47.00;99445.25;4998602;28;20038;-57
2023/11/10 04:59:20;;;;;;;1.80;0.60;;;;;;;15.76;47.56;99439.84;4997998;28;20409;-57
2023/11/10 05:01:46;;;;;;;1.95;0.40;;;;;;;15.72;47.12;99447.50;5016083;28;20509;-57
2023/11/10 05:04:13;;;;;;;6.43;0.70;;;;;;;15.71;46.83;99446.69;5015833;28;20023;-57
2023/11/10 05:06:38;;;;;;;0.47;0.30;;;;;;;15.74;46.72;99445.47;4998493;28;20103;-57
2023/11/10 05:09:06;;;;;;;5.65;0.47;;;;;;;15.76;47.25;99453.34;4998314;28;20088;-57
2023/11/10 05:11:36;;;;;;;0.57;0.30;;;;;;;15.77;46.42;99452.31;4998658;28;20037;-57
2023/11/10 05:14:01;;;;;;;1.05;0.43;;;;;;;15.78;46.45;99456.69;5015594;28;20113;-57
2023/11/10 05:16:29;;;;;;;0.65;0.47;;;;;;;15.74;46.90;99448.16;4998237;28;20111;-57
2023/11/10 05:18:56;;;;;;;4.80;0.38;;;;;;;15.73;46.97;99451.88;4998112;28;20040;-57
2023/11/10 05:21:21;;;;;;;1.45;0.40;;;;;;;15.72;47.53;99447.50;5015008;28;20050;-58
2023/11/10 05:23:46;;;;;;;0.50;0.32;;;;;;;15.71;47.51;99452.09;5015700;28;20096;-57
2023/11/10 05:26:12;;;;;;;2.08;0.50;;;;;;;15.73;47.35;99444.63;4998105;28;20091;-57
2023/11/10 05:28:40;;;;;;;1.92;0.75;;;;;;;15.74;46.95;99445.47;4981519;28;20033;-57
2023/11/10 05:31:05;;;;;;;1.38;0.17;;;;;;;15.73;46.79;99450.00;5015287;28;20072;-57
2023/11/10 05:33:30;;;;;;;2.28;0.38;;;;;;;15.68;46.87;99441.69;5015440;28;20014;-57
2023/11/10 05:35:57;;;;;;;1.33;0.50;;;;;;;15.68;47.32;99447.06;4997467;28;20025;-57
2023/11/10 05:38:23;;;;;;;2.75;0.40;;;;;;;15.64;46.74;99448.47;4997580;28;20018;-57
2023/11/10 05:40:48;;;;;;;3.85;0.40;;;;;;;15.62;46.96;99455.09;5015147;28;20698;-57
2023/11/10 05:43:14;;;;;;;1.17;0.40;;;;;;;15.58;47.40;99449.25;4997935;28;20021;-57
2023/11/10 05:45:40;;;;;;;1.55;0.98;;;;;;;15.59;47.29;99464.44;5015364;28;20476;-57
2023/11/10 05:48:05;;;;;;;1.27;0.40;;;;;;;15.56;46.58;99462.13;5015085;28;20017;-57
2023/11/10 05:50:30;;;;;;;0.90;0.50;;;;;;;15.51;46.67;99451.09;5014852;28;20025;-57
2023/11/10 05:52:57;;;;;;;3.30;0.30;;;;;;;15.50;47.43;99471.00;4997292;28;20057;-57
2023/11/10 05:55:23;;;;;;;8.75;0.82;;;;;;;15.48;47.55;99472.22;5014922;28;20477;-58
2023/11/10 05:57:48;;;;;;;7.85;0.57;;;;;;;15.44;46.84;99463.63;5015057;28;20040;-57
2023/11/10 06:00:14;;;;;;;3.50;0.30;;;;;;;15.42;47.33;99473.78;4997220;28;20022;-57
2023/11/10 06:02:39;;;;;;;1.77;0.43;;;;;;;15.37;46.96;99476.25;5015096;28;20064;-57
2023/11/10 06:05:06;;;;;;;2.10;0.40;;;;;;;15.34;47.41;99475.78;4981166;28;20477;-57
2023/11/10 06:07:31;;;;;;;0.22;0.22;;;;;;;15.30;47.78;99469.94;5015105;28;20477;-57
2023/11/10 06:09:57;;;;;;;0.68;0.20;;;;;;;15.27;46.70;99475.72;4997681;28;20028;-58
2023/11/10 06:12:23;;;;;;;6.20;0.55;;;;;;;15.25;47.55;99480.47;5014731;28;20083;-57
2023/11/10 06:14:49;;;;;;;1.67;0.20;;;;;;;15.22;46.74;99488.94;5015133;28;20030;-57
2023/11/10 06:17:15;;;;;;;1.25;0.32;;;;;;;15.19;47.12;99472.34;4997569;28;20488;-57
2023/11/10 06:19:40;;;;;;;1.65;0.30;;;;;;;15.18;47.66;99481.44;4997978;28;20088;-57
2023/11/10 06:22:07;;;;;;;2.55;0.75;;;;;;;15.13;46.66;99490.94;4998576;28;20473;-57
2023/11/10 06:24:32;;;;;;;0.30;0.22;;;;;;;15.10;47.24;99485.09;5016681;28;20400;-56
2023/11/10 06:26:57;;;;;;;4.10;0.47;;;;;;;15.08;47.92;99497.91;5017701;28;20033;-56
2023/11/10 06:29:23;;;;;;;0.68;0.28;;;;;;;15.08;46.59;99487.97;5016326;28;20041;-56
2023/11/10 06:31:48;;;;;;;3.20;0.40;;;;;;;15.09;46.86;99483.41;5000744;28;20038;-57
2023/11/10 06:34:14;;;;;;;2.00;0.47;;;;;;;15.07;46.45;99480.09;5018820;28;20034;-56
2023/11/10 06:36:39;;;;;;;1.73;0.35;;;;;;;15.07;46.75;99480.91;4998932;28;20038;-57
2023/11/10 06:39:05;;;;;;;1.17;0.40;;;;;;;15.08;46.98;99476.34;5014304;28;20089;-57
2023/11/10 06:41:30;;;;;;;3.10;0.43;;;;;;;15.09;47.35;99484.25;5014074;28;20065;-57
2023/11/10 06:43:56;;;;;;;1.75;0.32;;;;;;;15.08;47.18;99479.03;4996882;28;20034;-57
2023/11/10 06:46:26;;;;;;;4.60;0.50;;;;;;;15.11;46.79;99486.75;4996300;28;20026;-57
2023/11/10 06:48:52;;;;;;;1.35;1.02;;;;;;;15.10;47.48;99479.72;5014429;28;20040;-57
2023/11/10 06:51:18;;;;;;;7.88;0.63;;;;;;;15.12;47.14;99480.34;5013754;28;20026;-57
2023/11/10 06:53:44;;;;;;;2.60;0.60;;;;;;;15.12;46.76;99469.56;4980047;28;20037;-57
2023/11/10 06:56:10;;;;;;;2.08;0.52;;;;;;;15.10;47.00;99474.31;4996101;28;20044;-57
2023/11/10 06:58:36;;;;;;;1.88;0.57;;;;;;;15.11;47.65;99478.66;5013642;28;20397;-57
2023/11/10 07:01:02;;;;;;;3.08;0.40;;;;;;;15.13;47.28;99479.31;5013901;28;20034;-56
2023/11/10 07:03:28;;;;;;;0.55;0.40;;;;;;;15.14;47.67;99481.81;4996494;28;20037;-57
2023/11/10 07:05:53;;;;;;;1.67;0.45;;;;;;;15.14;47.63;99480.97;4996467;28;20034;-57
2023/11/10 07:08:20;;;;;;;1.75;0.98;;;;;;;15.14;47.50;99486.38;4996225;28;20517;-57
2023/11/10 07:10:47;;;;;;;1.35;0.65;;;;;;;15.18;46.25;99482.28;5014164;28;20064;-57
2023/11/10 07:13:16;;;;;;;3.95;0.40;;;;;;;15.26;47.30;99494.81;4996477;28;20413;-57
2023/11/10 07:15:42;;;;;;;0.52;0.52;;;;;;;15.33;47.22;99484.91;5013663;28;20038;-57
2023/11/10 07:18:07;;;;;;;4.65;1.10;;;;;;;15.41;46.58;99488.31;4996223;28;20029;-56
2023/11/10 07:20:34;;;;;;;5.75;0.68;;;;;;;15.48;46.64;99494.66;4995681;28;20406;-57
2023/11/10 07:23:00;;;;;;;2.30;0.68;;;;;;;15.55;46.49;99494.72;4980270;28;20038;-59
2023/11/10 07:25:26;;;;;;;5.20;0.60;;;;;;;15.57;46.35;99477.31;5013704;28;20044;-58
2023/11/10 07:27:52;;;;;;;1.50;0.38;;;;;;;15.58;46.25;99478.09;4996076;28;20497;-57
2023/11/10 07:30:18;;;;;;;4.18;0.77;;;;;;;15.59;46.89;99469.84;4995759;28;20048;-57
2023/11/10 07:32:44;;;;;;;3.80;0.85;;;;;;;15.54;47.49;99460.66;5013568;28;20541;-57
2023/11/10 07:35:09;;;;;;;3.42;0.93;;;;;;;15.66;47.16;99469.91;4995722;28;20544;-57
2023/11/10 07:37:36;;;;;;;2.28;1.58;;;;;;;15.72;45.99;99461.84;4995717;28;20045;-57
2023/11/10 07:40:04;;;;;;;3.78;0.85;;;;;;;15.72;46.99;99448.34;4996024;28;20041;-57
2023/11/10 07:42:31;;;;;;;3.25;0.80;;;;;;;15.74;46.90;99451.66;5013308;28;20034;-57
2023/11/10 07:44:56;;;;;;;1.10;0.40;;;;;;;15.81;46.62;99464.38;4995475;28;20026;-57
2023/11/10 07:47:21;;;;;;;7.20;0.90;;;;;;;15.86;46.77;99464.63;4995472;28;20034;-57
2023/11/10 07:49:47;;;;;;;6.93;0.85;;;;;;;15.89;45.88;99465.06;4995535;28;20034;-57
2023/11/10 07:52:12;;;;;;;6.18;0.95;;;;;;;15.92;47.02;99458.44;4995627;28;20038;-57
2023/11/10 07:54:38;;;;;;;6.60;1.38;;;;;;;15.93;47.06;99460.13;5013092;28;20032;-57
2023/11/10 07:57:03;;;;;;;2.17;1.35;;;;;;;15.96;47.42;99451.63;4995824;28;20062;-57
2023/11/10 07:59:28;;;;;;;3.90;0.55;;;;;;;16.01;46.18;99457.25;4995827;28;20038;-57
2023/11/10 08:01:54;;;;;;;1.55;0.50;;;;;;;16.05;46.67;99464.75;5011904;28;20124;-57
2023/11/10 08:04:20;;;;;;;3.63;0.60;;;;;;;16.07;47.08;99478.09;5015986;28;20105;-57
2023/11/10 08:06:46;;;;;;;6.75;0.93;;;;;;;16.08;46.89;99468.97;4999525;28;20489;-57
2023/11/10 08:09:15;;;;;;;5.28;0.90;;;;;;;16.15;46.93;99472.53;5017059;28;20030;-57
2023/11/10 08:11:41;;;;;;;14.68;1.48;;;;;;;16.20;46.41;99480.88;5000157;28;20029;-57
2023/11/10 08:14:07;;;;;;;8.40;1.92;;;;;;;16.28;46.04;99469.91;5016793;28;20117;-56
2023/11/10 08:16:33;;;;;;;7.43;0.95;;;;;;;16.37;46.92;99484.09;4999189;28;20061;-57
2023/11/10 08:18:59;;;;;;;1.95;0.85;;;;;;;16.44;46.66;99474.16;5016674;28;20034;-57
2023/11/10 08:21:25;;;;;;;6.18;1.27;;;;;;;16.54;46.60;99464.69;5004002;28;20038;-56
2023/11/10 08:23:51;;;;;;;5.70;0.85;;;;;;;16.70;46.37;99468.91;5016607;28;20042;-57
2023/11/10 08:26:16;;;;;;;5.65;0.98;;;;;;;16.84;46.01;99465.19;5015328;28;20452;-57
2023/11/10 08:28:42;;;;;;;2.22;0.85;;;;;;;16.94;46.30;99462.13;5016614;28;20440;-57
2023/11/10 08:31:07;;;;;;;8.43;1.90;;;;;;;16.96;45.95;99454.63;5015359;28;20064;-57
2023/11/10 08:33:33;;;;;;;3.53;0.70;;;;;;;16.97;45.69;99459.03;5015177;28;20036;-57
2023/11/10 08:35:58;;;;;;;3.40;0.95;;;;;;;16.98;46.33;99450.69;4998785;28;20042;-56
2023/11/10 08:38:24;;;;;;;4.35;0.60;;;;;;;16.96;45.55;99460.03;5015103;28;20497;-56
2023/11/10 08:40:49;;;;;;;2.38;0.93;;;;;;;16.89;45.60;99463.56;5016687;28;20030;-57
2023/11/10 08:43:15;;;;;;;5.10;1.13;;;;;;;16.86;46.00;99463.16;5015545;28;20367;-56
2023/11/10 08:45:42;;;;;;;2.78;1.00;;;;;;;16.83;45.81;99458.16;5016413;28;20405;-56
2023/11/10 08:48:07;;;;;;;1.90;0.73;;;;;;;16.80;46.02;99456.69;5016665;28;20053;-57
2023/11/10 08:50:36;;;;;;;6.25;0.77;;;;;;;16.80;46.39;99458.56;5016041;28;20108;-57
2023/11/10 08:53:02;;;;;;;7.22;1.58;;;;;;;16.85;46.31;99456.91;5014851;28;20022;-56
2023/11/10 08:55:27;;;;;;;2.00;0.68;;;;;;;17.05;44.81;99459.66;5016188;28;20040;-56
2023/11/10 08:57:52;;;;;;;3.55;0.85;;;;;;;17.11;45.85;99460.72;4998398;28;20498;-56
2023/11/10 09:00:18;;;;;;;6.35;0.95;;;;;;;17.18;45.79;99464.25;5016161;28;20042;-56
2023/11/10 09:02:44;;;;;;;3.60;0.82;;;;;;;17.31;45.51;99456.16;5015934;28;20065;-57
2023/11/10 09:05:11;;;;;;;5.18;1.33;;;;;;;17.32;44.90;99457.84;5014371;28;20030;-58
2023/11/10 09:07:37;;;;;;;7.15;1.58;;;;;;;17.41;45.25;99454.75;5014541;28;20030;-58
2023/11/10 09:10:04;;;;;;;3.33;1.02;;;;;;;17.81;44.41;99458.28;5001851;28;20034;-58
2023/11/10 09:12:32;;;;;;;4.13;1.58;;;;;;;18.36;44.06;99448.84;5019077;28;20054;-56
2023/11/10 09:14:57;;;;;;;4.63;1.05;;;;;;;18.60;44.01;99450.88;5015447;28;20034;-59
2023/11/10 09:17:23;;;;;;;5.45;1.00;;;;;;;18.37;44.17;99457.81;5016287;28;20045;-59
2023/11/10 09:19:48;;;;;;;3.90;0.85;;;;;;;18.15;44.64;99448.25;5015434;28;20403;-58
2023/11/10 09:22:14;;;;;;;6.43;1.25;;;;;;;18.00;44.85;99460.19;5015214;28;20509;-56
2023/11/10 09:24:42;;;;;;;4.82;0.85;;;;;;;17.81;44.45;99447.47;4997798;28;20458;-56
2023/11/10 09:27:08;;;;;;;3.20;0.52;;;;;;;17.70;44.62;99450.81;4997949;28;20076;-56
2023/11/10 09:29:33;;;;;;;2.72;0.73;;;;;;;17.58;45.13;99435.41;4997817;28;20041;-56
2023/11/10 09:31:58;;;;;;;1.98;0.70;;;;;;;17.42;45.17;99442.00;5015332;28;20035;-55
2023/11/10 09:34:25;;;;;;;5.35;0.88;;;;;;;17.33;45.47;99451.41;4997566;28;20038;-56
2023/11/10 09:36:51;;;;;;;8.73;2.25;;;;;;;17.22;45.89;99452.00;5015342;28;20048;-56
2023/11/10 09:39:16;;;;;;;3.88;1.27;;;;;;;17.13;45.19;99458.63;5015320;28;20038;-55
2023/11/10 09:41:45;;;;;;;3.45;1.45;;;;;;;17.03;45.05;99456.31;5015081;28;20113;-56
2023/11/10 09:44:11;;;;;;;1.83;0.60;;;;;;;16.98;44.96;99455.25;4997736;28;20058;-56
2023/11/10 09:46:37;;;;;;;7.68;0.75;;;;;;;16.94;45.40;99448.59;5015257;28;20088;-56
2023/11/10 09:49:04;;;;;;;4.50;1.42;;;;;;;16.89;45.23;99452.75;4997976;28;20034;-56
2023/11/10 09:51:30;;;;;;;2.03;0.60;;;;;;;16.86;45.12;99447.72;4998057;28;20117;-55
2023/11/10 09:53:57;;;;;;;7.60;0.88;;;;;;;16.87;45.42;99441.28;4981514;28;20121;-57
2023/11/10 09:56:23;;;;;;;2.20;0.70;;;;;;;16.87;45.51;99449.41;4999365;28;20497;-56
2023/11/10 09:58:50;;;;;;;7.93;1.67;;;;;;;16.84;45.74;99444.41;4999480;28;20037;-56
2023/11/10 10:01:15;;;;;;;4.45;1.13;;;;;;;16.84;44.55;99449.81;5000701;28;20037;-56
2023/11/10 10:03:41;;;;;;;8.20;0.90;;;;;;;16.84;45.26;99457.09;5017928;28;20056;-56
2023/11/10 10:06:08;;;;;;;5.18;0.60;;;;;;;16.85;45.09;99462.31;5018149;28;20543;-55
2023/11/10 10:08:34;;;;;;;1.70;0.68;;;;;;;16.83;46.34;99458.97;4999438;28;20034;-55
2023/11/10 10:11:00;;;;;;;3.95;0.90;;;;;;;16.80;45.75;99453.97;5015038;28;20040;-55
2023/11/10 10:13:27;;;;;;;3.15;0.70;;;;;;;16.74;44.91;99459.34;5014456;28;20026;-55
2023/11/10 10:15:54;;;;;;;4.78;1.17;;;;;;;16.65;46.09;99450.59;5014426;28;20045;-55
2023/11/10 10:18:22;;;;;;;6.50;0.47;;;;;;;16.59;45.98;99435.16;4997170;28;20045;-55
2023/11/10 10:20:57;;;;;;;6.35;1.38;;;;;;;16.56;46.56;99449.09;4993520;28;20042;-55
2023/11/10 10:23:23;;;;;;;0.80;0.55;;;;;;;16.51;45.34;99438.00;4994939;28;20034;-55
2023/11/10 10:25:48;;;;;;;3.53;1.17;;;;;;;16.47;47.02;99435.91;4992718;28;20421;-55
2023/11/10 10:28:17;;;;;;;5.80;1.20;;;;;;;16.47;47.01;99442.13;4993663;28;20418;-55
2023/11/10 10:30:44;;;;;;;2.92;0.55;;;;;;;16.47;46.68;99436.72;4994537;28;20039;-56
2023/11/10 10:33:10;;;;;;;3.45;0.90;;;;;;;16.45;46.22;99433.41;4994741;28;20019;-55
2023/11/10 10:35:35;;;;;;;4.18;1.00;;;;;;;16.48;47.06;99433.00;4994557;28;20092;-55
2023/11/10 10:38:04;;;;;;;3.22;0.93;;;;;;;16.51;46.62;99443.41;4994450;28;20098;-55
2023/11/10 10:40:30;;;;;;;6.80;0.65;;;;;;;16.53;46.30;99433.25;4994377;28;20430;-55
2023/11/10 10:42:58;;;;;;;1.55;0.60;;;;;;;16.51;46.39;99442.56;4994771;28;20018;-55
2023/11/10 10:45:26;;;;;;;3.72;1.25;;;;;;;16.48;47.12;99434.88;4993526;28;20034;-55
2023/11/10 10:47:51;;;;;;;1.92;0.60;;;;;;;16.50;47.65;99430.94;4994572;28;20046;-55
2023/11/10 10:50:17;;;;;;;2.20;1.15;;;;;;;16.48;47.06;99430.31;4993201;28;20061;-55
2023/11/10 10:52:43;;;;;;;0.98;0.40;;;;;;;16.49;47.04;99417.63;4992952;28;20054;-55
2023/11/10 10:55:09;;;;;;;1.80;0.80;;;;;;;16.49;46.10;99423.88;4994484;28;20030;-55
2023/11/10 10:57:35;;;;;;;3.33;0.50;;;;;;;16.49;46.58;99414.91;4993166;28;20026;-55
2023/11/10 11:00:09;;;;;;;2.17;0.30;;;;;;;16.44;47.29;99420.09;4993094;28;20132;-56
2023/11/10 11:02:37;;;;;;;5.78;1.23;;;;;;;16.39;47.76;99414.47;4993306;28;20113;-55
2023/11/10 11:05:14;;;;;;;1.77;0.73;;;;;;;16.36;46.89;99417.56;4994543;28;20073;-56
2023/11/10 11:07:58;;;;;;;6.97;0.70;;;;;;;16.36;46.57;99423.78;4994192;28;20045;-55
2023/11/10 11:10:47;;;;;;;4.03;0.40;;;;;;;16.38;47.00;99416.34;4994023;28;20075;-54
2023/11/10 11:13:29;;;;;;;2.47;0.60;;;;;;;16.40;46.15;99411.56;4992793;28;20076;-54
2023/11/10 11:16:24;;;;;;;4.10;0.40;;;;;;;16.42;47.03;99412.19;4992712;28;20125;-55
2023/11/10 11:19:23;;;;;;;3.90;0.68;;;;;;;16.37;46.83;99403.00;4985920;28;20042;-56
2023/11/10 11:21:50;;;;;;;2.83;0.38;;;;;;;16.36;47.35;99418.38;4991968;28;20085;-55
2023/11/10 11:24:22;;;;;;;1.92;0.60;;;;;;;16.41;46.52;99405.13;4992821;28;20038;-55
2023/11/10 11:27:21;;;;;;;1.02;0.40;;;;;;;16.46;47.34;99416.16;4988460;28;20031;-55
2023/11/10 11:29:54;;;;;;;3.72;0.45;;;;;;;16.46;47.29;99408.06;4992693;28;20031;-55
2023/11/10 11:32:25;;;;;;;0.98;0.20;;;;;;;16.46;47.65;99410.75;4992673;28;20069;-55